Loxahatchee Groves, FL

4:14 PM EDT on April 21, 2015 (GMT -0400)
Palm Beach International | | Change Station
CLOSE
Current Station
Airport
Location: West Palm Beach,
Elevation: 20 ft
Nearby Weather Stations

Elev 20 ft 26.68 °N, 80.10 °W | Updated 21 minutes ago

Mostly Cloudy
Mostly Cloudy
84 °F
Feels Like 88 °F
N
5
Wind Variable Wind from Variable

Today
High -- | Low -- °F
--% Chance of Precip.
Yesterday
High -- | Low -- °F
Precip. -- in
6:51 AM 7:48 PM
Waxing Crescent, 12% visible
Pressure 29.95 in
Visibility 10.0 miles
Clouds Scattered Clouds 2900 ft
Scattered Clouds 6500 ft
Mostly Cloudy 11000 ft
Heat Index 88 °F
Dew Point 69 °F
Humidity 61%
Rainfall 1.68 in
Snow Depth Not available.
UV 5 out of 12
Pollen 3.60 out of 12
Air Quality Not available.
Flu Activity Local Activity
METAR KPBI 211953Z VRB04KT 10SM SCT029 SCT065 BKN110 29/21 A2995 RMK AO2 SLP141 T02890206

More Conditions Fewer Conditions

Pressure 29.95 in
Visibility 10.0 miles
Clouds Scattered Clouds 2900 ft
Scattered Clouds 6500 ft
Mostly Cloudy 11000 ft
Heat Index 88 °F
Dew Point 69 °F
Humidity 61%
Rainfall 1.68 in
Snow Depth Not available.
UV 5 out of 12
Pollen 3.60 out of 12
Air Quality Not available.
Flu Activity Local Activity
METAR KPBI 211953Z VRB04KT 10SM SCT029 SCT065 BKN110 29/21 A2995 RMK AO2 SLP141 T02890206

More Conditions Fewer Conditions

10-Day Weather Forecast

Almanac

Astronomy

Apr. 21, 2015 Rise Set
Actual Time
Civil Twilight
Nautical Twilight
Astronomical Twilight
Moon
Length of Visible Light
Length of Day
Tomorrow will be .
, % of the Moon is Illuminated

Today's Extremes

State Highs State Lows

Community

WunderPhotos

Upload Photos

1,815,526 photos uploaded!

WunderBlogs® & News

Nearby

Air Quality

  Air Quality AQ Index Pollutant
Not available.

Snow Depth

Station Depth Elevation

Earthquake Activity

City Distance Mag. Time & Date
Minimum magnitude displayed is 2.5.

Coastal Water Temperatures

Place Temperature

Stations

Nearby Weather Stations

Station Location Temp. Windchill Dew Point Humidity Wind Precip. Elev Updated Type